Lantana, FL

10:28 PM EST on December 26, 2014 (GMT -0500)
Lantana | Change Station
CLOSE
Current Station
Personal Weather Station
Location: Lantana, FL
Elevation: 16 ft
Nearby Weather Stations

Elev 16 ft 26.58 °N, 80.06 °W | Updated 3 minutes ago

Mostly Cloudy
Mostly Cloudy
71.6 °F
Feels Like 74 °F
N
0.0
Wind Variable Wind from NE
Gusts 0.0 mph

Today
High -- | Low -- °F
--% Chance of Precip.
Yesterday
High -- | Low -- °F
Precip. -- in
7:06 AM 5:35 PM
Waxing Crescent, 32% visible
Pressure 30.19 in
Visibility 7.0 miles
Clouds Scattered Clouds 1800 ft
Mostly Cloudy 2200 ft
Overcast 3000 ft
Heat Index 74 °F
Dew Point 22 °F
Humidity 15%
Rainfall 0.15 in
Snow Depth Not available.
UV 0 out of 12
Pollen 4.50 out of 12
Air Quality Not available.
Flu Activity Not available.
METAR KPBI 270253Z 32004KT 7SM SCT018 BKN022 OVC030 23/22 A3019 RMK AO2 RAE34 SLP222 P0016 60019 T02280222 51009

More Conditions Fewer Conditions

Pressure 30.19 in
Visibility 7.0 miles
Clouds Scattered Clouds 1800 ft
Mostly Cloudy 2200 ft
Overcast 3000 ft
Heat Index 74 °F
Dew Point 22 °F
Humidity 15%
Rainfall 0.15 in
Snow Depth Not available.
UV 0 out of 12
Pollen 4.50 out of 12
Air Quality Not available.
Flu Activity Not available.
METAR KPBI 270253Z 32004KT 7SM SCT018 BKN022 OVC030 23/22 A3019 RMK AO2 RAE34 SLP222 P0016 60019 T02280222 51009

More Conditions Fewer Conditions

10-Day Weather Forecast

Almanac

Astronomy

Dec. 26, 2014 Rise Set
Actual Time
Civil Twilight
Nautical Twilight
Astronomical Twilight
Moon
Length of Visible Light
Length of Day
Tomorrow will be .
, % of the Moon is Illuminated

Today's Extremes

State Highs State Lows

Community

WunderPhotos

Upload Photos

1,780,830 photos uploaded!

WunderBlogs® & News

Nearby

Air Quality

  Air Quality AQ Index Pollutant
Not available.

Snow Depth

Station Depth Elevation

Earthquake Activity

City Distance Mag. Time & Date
Minimum magnitude displayed is 2.5.

Coastal Water Temperatures

Place Temperature

Nearby Weather Stations